Latest Weather Observations for Stenhouse Bay

IDS60801

Issued at 5:35 pm CST Thursday 24 July 2014 (issued every 30 minutes, with the page automatically refreshed every 10 minutes)

About weather observations | Map of weather stations | Latest weather observations for SA | Other Formats
Station Details ID: 022049 Name: STENHOUSE BAY Lat: -35.28 Lon: 136.94 Height: 42.0 m
Data from the previous 72 hours. | See also: Recent months at Stenhouse Bay
Date/Time
CST
Temp
°C
App
Temp
°C
Dew
Point
Rel
Hum
%
Delta-T
°C
Wind Press
QNH
hPa
Press
MSL
hPa
Rain
since 9 am
mm
Dir
 
Spd
km/h
Gust
km/h
Spd
kts
Gust
kts
24/05:30pm 13.2 10.1 10.4 83 1.5 W 17 22 9 12 1008.7 1008.7 0.2
24/05:00pm 14.0 10.8 11.3 84 1.4 W 19 30 10 16 1008.3 - 0.2
24/04:30pm 14.1 11.3 11.4 84 1.4 W 17 20 9 11 1008.0 1008.0 0.2
24/04:00pm 14.1 11.2 11.1 82 1.6 W 17 22 9 12 1007.5 - 0.2
24/03:30pm 14.5 13.3 12.7 89 1.0 W 11 19 6 10 1007.2 1007.2 0.2
24/03:00pm 14.6 11.2 11.2 80 1.8 W 20 28 11 15 1006.9 1006.9 0.0
24/02:30pm 14.7 10.4 10.9 78 2.0 WNW 24 35 13 19 1006.7 1006.7 0.0
24/02:00pm 15.9 12.2 11.5 75 2.4 W 22 35 12 19 1006.3 - 0.0
24/01:30pm 16.0 11.1 11.4 74 2.5 W 28 37 15 20 1006.3 1006.3 0.0
24/01:00pm 16.3 11.7 11.0 71 2.8 W 26 37 14 20 1006.1 - 0.0
24/12:30pm 15.7 11.9 11.1 74 2.5 W 22 33 12 18 1006.3 1006.3 0.0
24/12:00pm 15.2 11.5 11.4 78 2.0 W 22 33 12 18 1006.7 1006.7 0.0
24/11:30am 15.1 10.7 10.3 73 2.5 W 24 32 13 17 1006.9 1006.9 0.0
24/11:00am 15.7 11.8 10.9 73 2.6 W 22 35 12 19 1006.9 - 0.0
24/10:30am 14.9 11.3 10.7 76 2.2 WNW 20 33 11 18 1006.8 1006.8 0.0
24/10:00am 14.7 11.4 11.5 81 1.7 WNW 20 30 11 16 1006.5 - 0.0
24/09:30am 14.1 11.8 11.8 86 1.2 W 15 20 8 11 1006.3 1006.3 0.0
24/09:00am 13.0 10.8 10.9 87 1.1 W 13 20 7 11 1005.7 1005.8 6.4
24/08:30am 12.6 10.2 11.3 92 0.7 W 15 26 8 14 1005.4 1005.5 6.4
24/08:00am 11.5 8.9 10.7 95 0.4 W 15 19 8 10 1005.0 - 6.4
24/07:30am 10.6 8.1 9.8 95 0.4 W 13 19 7 10 1004.7 1004.7 6.4
24/07:00am 10.6 7.8 10.0 96 0.3 W 15 20 8 11 1004.1 - 6.2
24/06:30am 10.6 7.8 10.1 97 0.3 W 15 19 8 10 1003.9 1003.9 6.2
24/06:00am 10.4 8.0 10.1 98 0.2 W 13 20 7 11 1003.5 1003.5 6.2
24/05:30am 10.0 7.2 9.9 99 0.1 W 15 19 8 10 1003.1 1003.1 6.2
24/05:00am 10.1 6.9 10.0 99 0.1 W 17 20 9 11 1002.9 - 6.2
24/04:30am 9.5 6.9 9.4 99 0.0 WNW 13 15 7 8 1002.5 1002.5 6.2
24/04:00am 9.7 8.5 9.6 99 0.0 NW 6 6 3 3 1002.3 - 6.2
24/03:30am 10.1 8.8 10.0 99 0.1 N 7 9 4 5 1002.1 1002.1 6.2
24/03:00am 10.7 8.8 10.5 99 0.1 NE 11 13 6 7 1002.3 1002.3 6.2
24/02:30am 10.6 7.1 10.3 98 0.2 ENE 19 26 10 14 1002.5 1002.5 6.0
24/02:00am 10.4 5.5 9.9 97 0.3 ENE 26 37 14 20 1002.7 - 5.8
24/01:30am 10.3 4.6 9.8 97 0.3 NE 30 35 16 19 1003.0 1003.0 5.6
24/01:00am 10.2 5.2 9.4 95 0.4 NE 26 35 14 19 1003.7 - 5.6
24/12:30am 10.4 4.6 9.6 95 0.4 NE 30 41 16 22 1004.1 1004.1 5.6
24/12:00am 10.5 4.2 9.7 95 0.4 NE 33 44 18 24 1004.5 1004.5 5.6
 
Date/Time
CST
Temp
°C
App
Temp
°C
Dew
Point
Rel
Hum
%
Delta-T
°C
Wind Press
QNH
hPa
Press
MSL
hPa
Rain
since 9 am
mm
Dir
 
Spd
km/h
Gust
km/h
Spd
kts
Gust
kts
23/11:30pm 10.5 3.8 9.6 94 0.5 NE 35 46 19 25 1005.1 1005.2 5.6
23/11:00pm 10.5 3.4 9.4 93 0.6 NE 37 44 20 24 1005.7 - 5.4
23/10:30pm 10.3 5.3 9.4 94 0.5 NNE 26 35 14 19 1006.4 1006.4 5.2
23/10:00pm 10.3 6.0 9.2 93 0.5 NNE 22 30 12 16 1006.8 - 5.2
23/09:30pm 10.6 5.6 9.4 92 0.6 NE 26 39 14 21 1007.1 1007.1 5.0
23/09:00pm 10.6 6.4 9.7 94 0.5 NE 22 32 12 17 1007.6 1007.6 5.0
23/08:30pm 11.0 5.3 9.8 92 0.6 NE 30 41 16 22 1007.8 1007.8 3.6
23/08:00pm 10.9 5.6 9.7 92 0.6 NNE 28 39 15 21 1007.7 - 3.4
23/07:30pm 10.9 4.8 9.8 93 0.6 NNE 32 43 17 23 1007.9 1007.9 3.4
23/07:00pm 11.0 6.4 9.8 92 0.6 NNE 24 37 13 20 1008.1 - 2.8
23/06:30pm 11.0 6.8 9.8 92 0.6 NNE 22 33 12 18 1008.1 1008.1 2.6
23/06:00pm 11.4 7.5 9.5 88 1.0 NNE 20 28 11 15 1007.9 1007.9 2.4
23/05:30pm 11.4 6.3 9.3 87 1.1 NNE 26 35 14 19 1008.0 1008.0 2.4
23/05:00pm 11.6 6.2 9.5 87 1.1 NE 28 41 15 22 1008.1 - 2.4
23/04:30pm 11.7 6.1 10.1 90 0.8 NE 30 39 16 21 1008.2 1008.2 2.4
23/04:00pm 11.9 5.8 10.5 91 0.7 NE 33 48 18 26 1008.3 - 2.2
23/03:30pm 11.8 5.0 10.7 93 0.6 ENE 37 48 20 26 1008.2 1008.2 2.2
23/03:00pm 11.6 4.1 10.8 95 0.4 ENE 41 56 22 30 1008.4 1008.4 2.2
23/02:30pm 12.1 5.3 10.7 91 0.7 ENE 37 48 20 26 1009.1 1009.1 2.0
23/02:00pm 12.2 6.1 10.6 90 0.8 ENE 33 48 18 26 1009.7 - 2.0
23/01:30pm 12.0 6.2 10.7 92 0.7 ENE 32 41 17 22 1010.1 1010.1 2.0
23/01:00pm 11.8 7.1 10.5 92 0.7 ENE 26 39 14 21 1011.1 - 2.0
23/12:30pm 11.4 7.5 10.8 96 0.3 NE 22 28 12 15 1012.3 1012.3 2.0
23/12:00pm 11.5 6.9 10.9 96 0.3 NE 26 35 14 19 1013.5 1013.5 1.8
23/11:30am 11.2 7.2 10.6 96 0.3 N 22 30 12 16 1014.5 1014.5 1.2
23/11:00am 11.3 6.0 10.0 92 0.7 N 28 39 15 21 1014.8 - 0.4
23/10:30am 12.5 7.6 8.6 77 1.9 N 24 32 13 17 1015.2 1015.2 0.0
23/10:00am 13.1 8.6 7.1 67 2.9 N 20 28 11 15 1015.6 - 0.0
23/09:30am 13.2 7.7 6.1 62 3.4 N 24 30 13 16 1015.9 1015.9 0.0
23/09:00am 12.9 8.1 5.6 61 3.4 N 20 26 11 14 1015.5 1015.5 0.0
23/08:30am 12.5 8.3 5.7 63 3.2 N 17 24 9 13 1015.5 1015.5 0.0
23/08:00am 12.1 8.0 6.2 67 2.8 N 17 22 9 12 1015.5 - 0.0
23/07:30am 11.9 7.9 6.8 71 2.4 N 17 22 9 12 1015.6 1015.6 0.0
23/07:00am 12.1 9.2 6.6 69 2.6 N 11 17 6 9 1015.5 - 0.0
23/06:30am 12.5 8.5 6.8 68 2.7 NE 17 24 9 13 1015.5 1015.5 0.0
23/06:00am 11.8 8.4 5.9 67 2.8 NNE 13 19 7 10 1015.7 1015.7 0.0
23/05:30am 11.1 7.8 6.3 72 2.3 NNE 13 15 7 8 1016.1 1016.1 0.0
23/05:00am 11.3 8.2 5.6 68 2.6 NNE 11 15 6 8 1016.2 - 0.0
23/04:30am 11.3 7.8 5.6 68 2.6 NNE 13 15 7 8 1016.0 1016.0 0.0
23/04:00am 11.7 8.3 6.0 68 2.7 NE 13 17 7 9 1016.3 - 0.0
23/03:30am 11.9 8.9 6.0 67 2.8 NE 11 15 6 8 1016.8 1016.8 0.0
23/03:00am 11.9 8.4 5.5 65 3.0 NNE 13 17 7 9 1016.9 1016.9 0.0
23/02:30am 11.8 8.4 5.7 66 2.8 NNE 13 17 7 9 1017.2 1017.2 0.0
23/02:00am 11.4 8.0 5.7 68 2.6 NNE 13 17 7 9 1017.6 - 0.0
23/01:30am 11.5 7.9 6.6 72 2.3 NNE 15 20 8 11 1017.7 1017.7 0.0
23/01:00am 12.2 9.1 8.9 80 1.7 NE 15 20 8 11 1017.8 - 0.0
23/12:30am 12.0 9.0 9.2 83 1.4 NE 15 20 8 11 1018.1 1018.1 0.0
23/12:00am 12.0 9.1 9.6 85 1.2 NE 15 20 8 11 1018.7 1018.7 0.0
 
Date/Time
CST
Temp
°C
App
Temp
°C
Dew
Point
Rel
Hum
%
Delta-T
°C
Wind Press
QNH
hPa
Press
MSL
hPa
Rain
since 9 am
mm
Dir
 
Spd
km/h
Gust
km/h
Spd
kts
Gust
kts
22/11:30pm 12.3 9.0 9.5 83 1.4 NE 17 22 9 12 1019.1 1019.1 0.0
22/11:00pm 12.0 8.6 9.0 82 1.5 NE 17 20 9 11 1019.5 - 0.0
22/10:30pm 11.8 8.4 9.2 84 1.3 ENE 17 22 9 12 1019.6 1019.6 0.0
22/10:00pm 11.9 7.7 8.4 79 1.7 ENE 20 28 11 15 1019.5 - 0.0
22/09:30pm 12.1 8.2 7.2 72 2.4 ENE 17 22 9 12 1019.7 1019.7 0.0
22/09:00pm 12.2 9.8 8.5 78 1.8 NE 11 15 6 8 1019.9 1019.9 0.0
22/08:30pm 11.3 9.3 8.5 83 1.4 NE 9 13 5 7 1020.2 1020.2 0.0
22/08:00pm 12.0 9.3 9.0 82 1.5 NE 13 19 7 10 1020.0 - 0.0
22/07:30pm 12.2 9.7 9.6 84 1.3 ENE 13 19 7 10 1020.3 1020.3 0.0
22/07:00pm 12.4 9.9 9.8 84 1.3 ENE 13 19 7 10 1020.3 - 0.0
22/06:30pm 12.6 9.7 9.6 82 1.5 ENE 15 19 8 10 1020.3 1020.3 0.0
22/06:00pm 12.8 9.7 10.2 84 1.3 ENE 17 20 9 11 1020.2 1020.2 0.0
22/05:30pm 13.0 10.3 10.4 84 1.3 ENE 15 20 8 11 1020.1 1020.1 0.0
22/05:00pm 13.5 10.5 10.5 82 1.6 E 17 24 9 13 1020.2 - 0.0
22/04:30pm 14.2 11.1 10.4 78 2.0 E 17 26 9 14 1019.9 1019.9 0.0
22/04:00pm 14.7 11.7 10.5 76 2.2 E 17 22 9 12 1019.5 - 0.0
22/03:30pm 15.2 12.6 10.8 75 2.3 E 15 20 8 11 1019.9 1019.9 0.0
22/03:00pm 15.4 12.8 10.8 74 2.4 E 15 19 8 10 1020.1 1020.1 0.0
22/02:30pm 15.7 13.2 10.9 73 2.6 E 15 19 8 10 1020.4 1020.4 0.0
22/02:00pm 15.8 13.8 11.6 76 2.3 ESE 13 17 7 9 1020.6 - 0.0
22/01:30pm 15.7 13.6 11.1 74 2.5 E 13 15 7 8 1020.9 1020.9 0.0
22/01:00pm 15.7 13.5 10.9 73 2.6 E 13 17 7 9 1021.4 - 0.0
22/12:30pm 15.8 13.7 11.0 73 2.6 E 13 17 7 9 1021.8 1021.8 0.0
22/12:00pm 15.5 14.0 10.7 73 2.5 E 9 11 5 6 1022.3 1022.3 0.0
22/11:30am 15.3 14.1 10.3 72 2.6 E 7 9 4 5 1022.8 1022.8 0.0
22/11:00am 15.4 13.6 7.9 61 3.8 ENE 7 9 4 5 1023.0 - 0.0
22/10:30am 15.7 13.3 7.2 57 4.2 NNE 9 13 5 7 1023.4 1023.4 0.0
22/10:00am 14.9 13.0 7.5 61 3.7 N 7 11 4 6 1023.5 - 0.0
22/09:30am 13.4 11.3 6.7 64 3.2 NE 7 11 4 6 1023.2 1023.2 0.0
22/09:00am 12.8 11.3 8.3 74 2.2 NE 6 7 3 4 1023.1 1023.1 0.0
22/08:30am 12.3 10.6 8.2 76 2.0 NE 7 9 4 5 1022.9 1022.9 0.0
22/08:00am 9.8 8.1 7.4 85 1.1 ENE 6 9 3 5 1022.6 - 0.0
22/07:30am 9.1 7.1 6.2 82 1.3 NE 6 7 3 4 1022.5 1022.5 0.0
22/07:00am 8.3 6.1 5.2 81 1.4 N 6 7 3 4 1022.5 - 0.0
22/06:30am 7.8 5.6 5.4 85 1.1 N 6 9 3 5 1022.2 1022.2 0.0
22/06:00am 7.4 5.0 5.2 86 1.0 N 7 9 4 5 1022.1 1022.1 0.0
22/05:30am 7.6 5.4 5.2 85 1.1 N 6 7 3 4 1021.9 1021.9 0.0
22/05:00am 7.8 5.4 5.4 85 1.1 N 7 11 4 6 1022.0 - 0.0
22/04:30am 8.1 5.8 5.6 84 1.1 N 7 9 4 5 1021.9 1021.9 0.0
22/04:00am 8.3 6.0 5.8 84 1.1 N 7 9 4 5 1021.9 - 0.0
22/03:30am 8.7 6.4 5.8 82 1.3 NNE 7 11 4 6 1021.8 1021.8 0.0
22/03:00am 8.3 5.7 5.9 85 1.1 NNE 9 11 5 6 1021.8 1021.8 0.0
22/02:30am 8.4 6.1 5.7 83 1.2 N 7 11 4 6 1021.9 1021.9 0.0
22/02:00am 8.8 6.2 6.1 83 1.2 N 9 13 5 7 1021.8 - 0.0
22/01:30am 8.7 6.4 5.8 82 1.3 N 7 11 4 6 1021.9 1021.9 0.0
22/01:00am 8.3 5.6 5.4 82 1.3 N 9 13 5 7 1022.0 - 0.0
22/12:30am 9.1 6.9 6.2 82 1.3 NNE 7 11 4 6 1022.2 1022.2 0.0
22/12:00am 9.1 6.8 7.4 89 0.8 NNE 9 11 5 6 1022.3 1022.3 0.0
 
Date/Time
CST
Temp
°C
App
Temp
°C
Dew
Point
Rel
Hum
%
Delta-T
°C
Wind Press
QNH
hPa
Press
MSL
hPa
Rain
since 9 am
mm
Dir
 
Spd
km/h
Gust
km/h
Spd
kts
Gust
kts
21/11:30pm 9.3 7.0 7.4 88 0.9 NNE 9 11 5 6 1022.2 1022.2 0.0
21/11:00pm 9.3 7.3 7.3 87 0.9 NE 7 11 4 6 1022.2 - 0.0
21/10:30pm 8.8 7.3 6.8 87 0.9 NNE 4 6 2 3 1022.2 1022.2 0.0
21/10:00pm 8.3 6.3 6.4 88 0.9 NNE 6 7 3 4 1022.2 - 0.0
21/09:30pm 8.8 7.0 7.1 89 0.8 N 6 7 3 4 1022.1 1022.1 0.0
21/09:00pm 9.2 7.5 7.6 90 0.8 N 6 7 3 4 1022.0 1022.0 0.0
21/08:30pm 9.6 8.4 8.0 90 0.8 N 4 6 2 3 1021.8 1021.8 0.0
21/08:00pm 9.8 8.1 8.2 90 0.8 N 7 9 4 5 1021.7 - 0.0
21/07:30pm 10.0 8.3 8.4 90 0.8 N 7 9 4 5 1021.5 1021.5 0.0
21/07:00pm 10.2 8.7 8.5 89 0.8 N 6 7 3 4 1021.3 - 0.0
21/06:30pm 10.4 8.7 8.3 87 1.0 N 7 11 4 6 1021.0 1021.0 0.0
21/06:00pm 10.8 9.1 8.4 85 1.2 N 7 9 4 5 1020.8 1020.8 0.0

Other Formats:

Comma delimited format used in spreadsheet applications
http://www.bom.gov.au/fwo/IDS60801/IDS60801.95806.axf

JavaScript Object Notation format (JSON) in row-major order
http://www.bom.gov.au/fwo/IDS60801/IDS60801.95806.json